Airfield :







YOU CAN JOIN US ON...

 
LOGIN :

Register | Disclaimer

   EN    FR    IT 

 









Legend :    VFR   Marginal VFR   IFR   Intensive IFR   Very Intensive IFR
Visi :
Ceiling :
>= 8 km
>= 3000ft
5 to 8 km
1000 to 3000 ft
1500m to 5 km
500 to 1000 ft
800 to 1500m
200 to 500 ft
< 800m
< 200 ft
Symbols :   Thunderstorms  Fog  Heavy snow  Heavy precipitations  Wind > 20 kt






- Airport Elevation : 266 ft
- IATA code : MHT


KMHT - Manchester

CURRENT METAR :
  • 202253Z 13007KT 10SM CLR 13/01 A3052 RMK AO2 SLP349 T01330011

EXPIRED METARs :
  • 202153Z 05006KT 10SM FEW075 16/M03 A3050 RMK AO2 SLP344 T01611028
  • 202053Z 03010KT 10SM SCT075 17/M03 A3050 RMK AO2 SLP342 T01721028 55007

TAF KMHT
Valid from the 20 at 18:00 until the 21 at 18:00 UTC


201720Z 2018/2118 01008KT P6SM BKN070
FM202300 VRB03KT P6SM SKC
FM211200 01005KT P6SM SKC
KZBW FIR / North America



MET'MAP, your aeronautical weather chart ! - Copyright ORBIFLY December 2007 - Disclaimer

ORBIFLY MET'MAP TEAM :

Programming & Development : Alexandra Zaïnal
Concept & original design : Baudouin d'Aumeries
Assistance for programming : Marc-Olivier Méhu
Technical & hardware support : Manuel Goepfert

Contact : metmap@orbifly.com




SOURCES & CREDITS :

   NOAA